FAOR/JNB METAR and TAF weather

Enter ICAO airport designator
Station Type Date Time Source
FAOR METAR 2020/04/04 05:30 UTC NOAA

FAOR 040530Z 06003KT 4500 RA BKN007 OVC012 13/12 Q1024 BECMG 6000 BKN010


Station Type Date Time Source
FAOR Decoded METAR 2020/04/04 05:30 UTC NOAA

Station name not available
Apr 04, 2020 - 01:30 AM EDT / 2020.04.04 0530 UTC
Wind: from the ENE (060 degrees) at 3 MPH (3 KT):0
Visibility: 2 mile(s):0
Sky conditions: overcast
Weather: rain
Temperature: 55 F (13 C)
Dew Point: 53 F (12 C)
Relative Humidity: 93%
Pressure (altimeter): 30.24 in. Hg (1024 hPa)
ob: FAOR 040530Z 06003KT 4500 RA BKN007 OVC012 13/12 Q1024 BECMG 6000 BKN010
cycle: 5

Station Type Date Time Source
FAOR TAF 2020/04/04 06:00 UTC NOAA

TAF FAOR 040400Z 0406/0512 VRB03KT 9999 -RA BKN008 OVC020 TX22/0512Z TN10/0504Z PROB40
TEMPO 0406/0414 5000 RA FEW030TCU
BECMG 0409/0411 05005KT BKN020 BKN030 PROB30
TEMPO 0413/0418 -TSRA FEW035CB PROB40
TEMPO 0414/0420 25005KT 5000 SHRA FEW035TCU PROB40
TEMPO 0422/0506 2000 BR BKN005
FM050600 25005KT 9999 SCT025

Example: see airport list